Time;durP1;ratioP1;P1;durP2;ratioP2;P2;SDS_P1;SDS_P2;PMS_P1;PMS_P2;Temp;Humidity;BMP_temperature;BMP_pressure;BME280_temperature;BME280_humidity;BME280_pressure;Samples;Min_cycle;Max_cycle;Signal;HPM_P1;HPM_P2
2022/02/06 00:00:04;;;;;;;10.32;3.63;;;;;;;;;;5005398;28;20033;-88
2022/02/06 00:02:34;;;;;;;13.77;4.35;;;;;;;;;;4989082;28;20030;-88
2022/02/06 00:05:00;;;;;;;11.88;4.03;;;;;;;;;;4994753;28;20046;-83
2022/02/06 00:07:25;;;;;;;10.57;3.60;;;;;;;;;;4990792;28;20085;-88
2022/02/06 00:09:51;;;;;;;9.45;3.72;;;;;;;;;;4990188;28;20026;-84
2022/02/06 00:12:16;;;;;;;11.27;3.65;;;;;;;;;;4989551;28;20061;-84
2022/02/06 00:14:42;;;;;;;11.23;3.97;;;;;;;;;;4989029;28;20034;-84
2022/02/06 00:17:09;;;;;;;10.70;3.58;;;;;;;;;;4985367;28;20062;-83
2022/02/06 00:19:35;;;;;;;10.90;3.80;;;;;;;;;;4994282;28;20038;-88
2022/02/06 00:22:03;;;;;;;11.30;3.97;;;;;;;;;;4987737;28;20117;-88
2022/02/06 00:24:44;;;;;;;8.55;3.42;;;;;;;;;;4992283;28;20510;-83
2022/02/06 00:27:22;;;;;;;10.48;3.53;;;;;;;;;;4992179;28;20033;-83
2022/02/06 00:30:00;;;;;;;11.40;3.75;;;;;;;;;;4987937;28;20391;-87
2022/02/06 00:32:38;;;;;;;9.95;3.47;;;;;;;;;;4992306;28;20534;-85
2022/02/06 00:40:32;;;;;;;11.63;3.63;;;;;;;;;;4986474;28;20045;-84
2022/02/06 00:42:58;;;;;;;9.07;3.83;;;;;;;;;;4990824;28;20026;-87
2022/02/06 00:45:23;;;;;;;9.68;3.22;;;;;;;;;;4985809;28;20030;-83
2022/02/06 00:47:48;;;;;;;8.85;3.83;;;;;;;;;;4988802;28;20022;-88
2022/02/06 00:50:14;;;;;;;10.57;4.45;;;;;;;;;;4990460;28;20030;-83
2022/02/06 00:52:49;;;;;;;10.18;3.13;;;;;;;;;;4984934;28;20084;-89
2022/02/06 00:55:14;;;;;;;12.82;3.50;;;;;;;;;;4992917;28;20117;-84
2022/02/06 00:57:40;;;;;;;10.05;3.60;;;;;;;;;;4988404;28;20132;-87
2022/02/06 01:00:06;;;;;;;11.23;3.50;;;;;;;;;;4995097;28;20117;-84
2022/02/06 01:02:31;;;;;;;9.45;3.40;;;;;;;;;;4996809;28;20029;-84
2022/02/06 01:04:56;;;;;;;6.95;3.47;;;;;;;;;;4990978;28;20392;-84
2022/02/06 01:07:22;;;;;;;13.07;3.83;;;;;;;;;;4987125;28;20092;-84
2022/02/06 01:09:47;;;;;;;10.82;3.70;;;;;;;;;;4993524;28;20026;-88
2022/02/06 01:12:18;;;;;;;9.10;3.53;;;;;;;;;;4995097;28;20030;-84
2022/02/06 01:14:54;;;;;;;10.50;3.35;;;;;;;;;;4988118;28;20034;-88
2022/02/06 01:17:28;;;;;;;8.63;3.22;;;;;;;;;;4989667;28;20076;-85
2022/02/06 01:20:05;;;;;;;8.70;3.03;;;;;;;;;;4984090;28;20419;-84
2022/02/06 01:22:33;;;;;;;12.80;3.40;;;;;;;;;;4982458;28;20027;-85
2022/02/06 01:25:10;;;;;;;12.57;3.33;;;;;;;;;;4981094;28;20034;-84
2022/02/06 01:27:45;;;;;;;8.98;3.05;;;;;;;;;;4986486;28;20030;-85
2022/02/06 01:30:18;;;;;;;8.40;2.92;;;;;;;;;;5000794;28;20116;-84
2022/02/06 01:32:52;;;;;;;9.13;3.10;;;;;;;;;;4983976;28;20299;-84
2022/02/06 01:35:26;;;;;;;7.15;2.85;;;;;;;;;;4988378;28;20026;-84
2022/02/06 01:38:29;;;;;;;9.55;3.45;;;;;;;;;;4987449;28;20034;-84
2022/02/06 01:40:57;;;;;;;9.30;2.88;;;;;;;;;;4983071;28;20049;-84
2022/02/06 01:43:28;;;;;;;8.50;2.70;;;;;;;;;;4985202;28;20035;-84
2022/02/06 02:13:19;;;;;;;7.72;2.90;;;;;;;;;;4979691;28;20049;-84
2022/02/06 02:16:27;;;;;;;;;;;;;;;;;;4983817;28;20030;-85
2022/02/06 02:19:06;;;;;;;7.30;2.90;;;;;;;;;;4991917;28;19925;-86
2022/02/06 02:24:22;;;;;;;8.55;2.72;;;;;;;;;;4984662;28;20022;-84
2022/02/06 02:43:05;;;;;;;8.98;3.05;;;;;;;;;;4988495;28;20132;-84
2022/02/06 02:48:03;;;;;;;7.22;3.30;;;;;;;;;;4987329;28;20018;-83
2022/02/06 02:50:31;;;;;;;5.65;2.83;;;;;;;;;;4987738;28;20026;-85
2022/02/06 03:00:45;;;;;;;11.00;2.40;;;;;;;;;;4987891;28;20030;-88
2022/02/06 03:05:37;;;;;;;7.80;2.85;;;;;;;;;;4984385;28;20019;-88
2022/02/06 03:08:05;;;;;;;7.55;2.65;;;;;;;;;;4983906;28;20022;-88
2022/02/06 03:10:32;;;;;;;7.70;2.65;;;;;;;;;;4983303;28;20022;-83
2022/02/06 03:13:00;;;;;;;10.15;3.03;;;;;;;;;;4980738;28;20088;-88
2022/02/06 03:18:21;;;;;;;7.53;2.42;;;;;;;;;;4981062;28;20517;-88
2022/02/06 03:20:49;;;;;;;8.10;2.50;;;;;;;;;;4986284;28;20487;-88
2022/02/06 03:23:15;;;;;;;6.63;2.55;;;;;;;;;;4983010;28;20117;-84
2022/02/06 03:25:49;;;;;;;8.10;2.80;;;;;;;;;;4990912;28;20484;-85
2022/02/06 03:28:15;;;;;;;7.68;2.78;;;;;;;;;;4987137;28;20480;-84
2022/02/06 03:30:40;;;;;;;5.97;2.30;;;;;;;;;;4985989;28;20026;-85
2022/02/06 03:33:06;;;;;;;6.18;2.38;;;;;;;;;;5000784;28;20053;-84
2022/02/06 03:35:32;;;;;;;6.60;2.20;;;;;;;;;;4982264;28;20097;-85
2022/02/06 03:37:57;;;;;;;8.50;2.97;;;;;;;;;;4988695;28;20062;-84
2022/02/06 03:40:26;;;;;;;5.63;2.33;;;;;;;;;;4987896;28;21035;-84
2022/02/06 03:43:10;;;;;;;6.63;2.40;;;;;;;;;;4988273;28;20066;-83
2022/02/06 03:45:51;;;;;;;10.23;2.75;;;;;;;;;;4987617;28;20050;-84
2022/02/06 03:50:48;;;;;;;5.95;2.72;;;;;;;;;;4992378;28;20034;-84
2022/02/06 03:53:17;;;;;;;9.20;2.65;;;;;;;;;;4989629;28;20491;-87
2022/02/06 03:55:43;;;;;;;7.28;2.60;;;;;;;;;;4996207;28;20026;-85
2022/02/06 03:58:08;;;;;;;8.82;2.90;;;;;;;;;;4988306;28;20062;-84
2022/02/06 04:00:33;;;;;;;6.78;2.42;;;;;;;;;;4985063;28;20037;-84
2022/02/06 04:02:59;;;;;;;6.95;2.72;;;;;;;;;;4986869;28;20476;-82
2022/02/06 04:05:24;;;;;;;7.82;2.90;;;;;;;;;;4990451;28;20022;-86
2022/02/06 04:07:51;;;;;;;5.80;2.90;;;;;;;;;;4982592;28;20026;-84
2022/02/06 04:10:19;;;;;;;4.63;2.50;;;;;;;;;;5004892;28;20046;-83
2022/02/06 04:12:45;;;;;;;6.10;2.88;;;;;;;;;;4987667;28;20126;-83
2022/02/06 04:15:19;;;;;;;7.25;3.08;;;;;;;;;;5006043;28;20387;-84
2022/02/06 04:17:55;;;;;;;6.40;2.67;;;;;;;;;;4986500;28;20379;-82
2022/02/06 04:20:21;;;;;;;6.15;3.03;;;;;;;;;;4991914;28;20532;-84
2022/02/06 04:22:46;;;;;;;6.25;2.90;;;;;;;;;;4990631;28;20034;-84
2022/02/06 04:25:12;;;;;;;8.25;3.13;;;;;;;;;;4987954;28;20397;-86
2022/02/06 04:27:37;;;;;;;6.28;3.25;;;;;;;;;;4991820;28;20113;-84
2022/02/06 04:30:04;;;;;;;6.82;3.42;;;;;;;;;;4990165;28;20058;-84
2022/02/06 04:32:29;;;;;;;7.88;3.03;;;;;;;;;;4989610;28;20126;-84
2022/02/06 04:34:56;;;;;;;4.85;2.80;;;;;;;;;;4986975;28;20120;-83
2022/02/06 04:37:35;;;;;;;6.28;3.38;;;;;;;;;;4991697;28;20026;-87
2022/02/06 04:51:31;;;;;;;5.80;3.08;;;;;;;;;;4983607;28;20054;-86
2022/02/06 05:32:32;;;;;;;7.88;4.00;;;;;;;;;;4987376;28;20053;-87
2022/02/06 05:34:45;;;;;;;9.95;4.97;;;;;;;;;;4984158;28;20073;-88
2022/02/06 05:37:11;;;;;;;9.05;4.55;;;;;;;;;;4981792;28;20042;-85
2022/02/06 05:39:36;;;;;;;8.00;4.15;;;;;;;;;;4990728;28;20442;-84
2022/02/06 05:42:02;;;;;;;10.02;4.43;;;;;;;;;;4995005;28;20065;-85
2022/02/06 05:44:27;;;;;;;8.98;3.83;;;;;;;;;;4985769;28;20033;-87
2022/02/06 05:46:53;;;;;;;8.95;4.10;;;;;;;;;;4989518;28;20074;-84
2022/02/06 05:49:18;;;;;;;7.63;4.05;;;;;;;;;;4993057;28;20408;-84
2022/02/06 05:51:44;;;;;;;11.32;4.57;;;;;;;;;;4986579;28;20065;-85
2022/02/06 05:54:10;;;;;;;7.60;3.85;;;;;;;;;;5003428;28;20037;-84
2022/02/06 05:56:35;;;;;;;7.57;4.28;;;;;;;;;;4991843;28;20039;-84
2022/02/06 05:59:02;;;;;;;10.57;4.65;;;;;;;;;;4992010;28;20027;-84
2022/02/06 06:01:28;;;;;;;9.23;4.40;;;;;;;;;;4990777;28;20033;-84
2022/02/06 06:03:54;;;;;;;7.97;4.32;;;;;;;;;;4987820;28;20045;-84
2022/02/06 06:06:19;;;;;;;9.35;4.75;;;;;;;;;;4980350;28;20026;-86
2022/02/06 06:08:44;;;;;;;10.05;4.80;;;;;;;;;;4998945;28;20053;-84
2022/02/06 06:11:10;;;;;;;11.63;5.53;;;;;;;;;;4989463;28;20030;-83
2022/02/06 06:13:35;;;;;;;10.20;5.00;;;;;;;;;;4986782;28;20492;-84
2022/02/06 06:16:00;;;;;;;6.85;4.80;;;;;;;;;;4981797;28;20041;-84
2022/02/06 06:18:26;;;;;;;7.47;4.97;;;;;;;;;;4975528;28;20058;-87
2022/02/06 06:20:53;;;;;;;8.88;4.75;;;;;;;;;;4986111;28;20037;-84
2022/02/06 06:23:19;;;;;;;8.95;4.95;;;;;;;;;;4982821;28;20034;-84
2022/02/06 06:25:47;;;;;;;9.20;4.72;;;;;;;;;;4989027;28;20045;-87
2022/02/06 06:28:13;;;;;;;6.38;4.25;;;;;;;;;;4994987;28;20030;-86
2022/02/06 06:30:38;;;;;;;10.05;4.80;;;;;;;;;;4987027;28;20165;-83
2022/02/06 06:33:04;;;;;;;7.05;4.32;;;;;;;;;;4986509;28;20053;-84
2022/02/06 06:35:30;;;;;;;6.35;3.65;;;;;;;;;;4986504;28;20038;-86
2022/02/06 06:37:58;;;;;;;7.68;3.88;;;;;;;;;;4983446;28;20572;-83
2022/02/06 06:40:24;;;;;;;7.18;4.10;;;;;;;;;;4988906;28;20407;-84
2022/02/06 06:42:50;;;;;;;7.82;4.20;;;;;;;;;;4984986;28;20041;-83
2022/02/06 06:45:15;;;;;;;7.28;4.22;;;;;;;;;;4986868;28;20026;-83
2022/02/06 06:47:40;;;;;;;8.75;4.88;;;;;;;;;;4985936;28;20056;-83
2022/02/06 06:50:06;;;;;;;8.40;4.28;;;;;;;;;;4985636;28;20077;-84
2022/02/06 06:52:31;;;;;;;6.85;3.92;;;;;;;;;;4985586;28;20026;-84
2022/02/06 06:55:01;;;;;;;6.97;4.47;;;;;;;;;;4984079;28;20038;-84
2022/02/06 06:57:33;;;;;;;7.18;4.03;;;;;;;;;;4985525;28;20031;-85
2022/02/06 07:02:43;;;;;;;6.68;4.43;;;;;;;;;;4989708;28;20089;-83
2022/02/06 07:05:08;;;;;;;9.50;4.43;;;;;;;;;;4991480;28;20022;-83
2022/02/06 07:07:34;;;;;;;7.30;4.53;;;;;;;;;;4984783;28;20058;-84
2022/02/06 07:10:01;;;;;;;6.85;4.22;;;;;;;;;;4982885;28;20483;-84
2022/02/06 07:12:26;;;;;;;9.25;4.68;;;;;;;;;;5000223;28;20027;-84
2022/02/06 07:14:52;;;;;;;8.57;4.43;;;;;;;;;;4981922;28;20546;-83
2022/02/06 07:17:19;;;;;;;8.63;4.32;;;;;;;;;;4983986;28;20101;-84
2022/02/06 07:19:45;;;;;;;9.15;4.60;;;;;;;;;;4984051;28;20027;-86
2022/02/06 07:22:15;;;;;;;9.23;4.25;;;;;;;;;;4985023;28;20023;-84
2022/02/06 07:24:41;;;;;;;9.70;4.60;;;;;;;;;;4982946;28;20522;-84
2022/02/06 07:27:19;;;;;;;6.95;4.10;;;;;;;;;;4982231;28;20034;-84
2022/02/06 07:29:44;;;;;;;7.60;4.38;;;;;;;;;;4981615;28;20494;-85
2022/02/06 07:32:10;;;;;;;5.93;4.13;;;;;;;;;;4983979;28;20049;-84
2022/02/06 07:34:35;;;;;;;8.15;4.80;;;;;;;;;;4984261;28;20026;-85
2022/02/06 07:37:00;;;;;;;7.40;4.68;;;;;;;;;;4992746;28;21209;-85
2022/02/06 07:39:26;;;;;;;8.27;4.63;;;;;;;;;;4997828;28;20084;-84
2022/02/06 07:41:51;;;;;;;11.02;4.78;;;;;;;;;;4985306;28;20105;-84
2022/02/06 07:44:17;;;;;;;7.78;4.85;;;;;;;;;;4982348;28;20117;-83
2022/02/06 07:46:45;;;;;;;7.50;4.90;;;;;;;;;;5001695;28;20053;-84
2022/02/06 07:49:11;;;;;;;12.35;5.07;;;;;;;;;;4983680;28;20050;-85
2022/02/06 07:51:39;;;;;;;8.07;4.82;;;;;;;;;;4986317;28;21813;-84
2022/02/06 07:54:04;;;;;;;8.52;4.70;;;;;;;;;;4986315;28;20060;-84
2022/02/06 07:56:30;;;;;;;9.32;5.15;;;;;;;;;;4983054;28;20027;-84
2022/02/06 07:58:55;;;;;;;8.80;4.90;;;;;;;;;;4976834;28;20438;-84
2022/02/06 08:01:21;;;;;;;10.55;5.10;;;;;;;;;;4981319;28;20400;-84
2022/02/06 08:03:49;;;;;;;7.70;4.35;;;;;;;;;;4979494;28;20446;-85
2022/02/06 08:06:15;;;;;;;8.23;4.60;;;;;;;;;;4980099;28;20042;-84
2022/02/06 08:08:41;;;;;;;10.05;4.40;;;;;;;;;;4981260;28;20050;-83
2022/02/06 08:11:12;;;;;;;7.35;4.57;;;;;;;;;;4980080;28;20040;-84
2022/02/06 08:13:44;;;;;;;9.30;4.03;;;;;;;;;;4977764;28;20033;-85
2022/02/06 08:16:10;;;;;;;7.65;4.28;;;;;;;;;;4981829;28;20030;-85
2022/02/06 08:18:40;;;;;;;6.75;3.70;;;;;;;;;;4984362;28;20054;-85
2022/02/06 08:21:09;;;;;;;7.10;3.90;;;;;;;;;;4978802;28;20034;-84
2022/02/06 08:23:35;;;;;;;8.07;3.45;;;;;;;;;;4977703;28;20038;-84
2022/02/06 08:26:02;;;;;;;7.00;3.38;;;;;;;;;;4977765;28;20037;-84
2022/02/06 08:28:27;;;;;;;6.15;3.50;;;;;;;;;;4978963;28;20026;-84
2022/02/06 08:30:53;;;;;;;8.27;3.45;;;;;;;;;;4982071;28;20034;-83
2022/02/06 08:33:18;;;;;;;5.68;3.38;;;;;;;;;;4986200;28;20416;-84
2022/02/06 08:35:45;;;;;;;6.28;3.55;;;;;;;;;;4982783;28;20041;-85
2022/02/06 08:38:11;;;;;;;5.80;3.45;;;;;;;;;;4983316;28;20096;-84
2022/02/06 08:40:36;;;;;;;5.82;3.53;;;;;;;;;;4980582;28;20054;-84
2022/02/06 08:43:02;;;;;;;5.25;3.70;;;;;;;;;;4988433;28;20085;-84
2022/02/06 08:45:29;;;;;;;6.38;3.72;;;;;;;;;;4981934;28;20034;-84
2022/02/06 08:47:56;;;;;;;8.48;3.63;;;;;;;;;;4981916;28;20081;-83
2022/02/06 08:50:22;;;;;;;6.47;3.40;;;;;;;;;;4991894;28;20034;-84
2022/02/06 08:52:47;;;;;;;5.95;3.80;;;;;;;;;;4976591;28;20030;-84
2022/02/06 08:55:13;;;;;;;8.05;3.63;;;;;;;;;;4977245;28;20077;-84
2022/02/06 08:57:47;;;;;;;7.10;3.70;;;;;;;;;;4980358;28;20030;-84
2022/02/06 09:00:13;;;;;;;6.72;3.45;;;;;;;;;;4992219;28;20022;-83
2022/02/06 09:02:38;;;;;;;6.65;3.80;;;;;;;;;;4981876;28;20053;-85
2022/02/06 09:05:04;;;;;;;6.28;3.55;;;;;;;;;;4977182;28;20038;-83
2022/02/06 09:07:29;;;;;;;6.20;3.33;;;;;;;;;;4995996;28;20022;-84
2022/02/06 09:09:59;;;;;;;6.22;3.50;;;;;;;;;;4981970;28;20667;-84
2022/02/06 09:12:26;;;;;;;4.45;3.22;;;;;;;;;;4980951;28;20031;-83
2022/02/06 09:14:52;;;;;;;7.72;4.35;;;;;;;;;;4983377;28;20037;-84
2022/02/06 09:17:17;;;;;;;4.85;3.50;;;;;;;;;;4978387;28;20105;-83
2022/02/06 09:19:43;;;;;;;6.55;3.30;;;;;;;;;;4976806;28;20138;-84
2022/02/06 09:22:10;;;;;;;6.90;3.58;;;;;;;;;;4978766;28;20033;-84
2022/02/06 09:24:36;;;;;;;7.53;3.55;;;;;;;;;;4983585;28;20121;-84
2022/02/06 09:27:02;;;;;;;4.93;3.10;;;;;;;;;;4983554;28;20035;-84
2022/02/06 09:29:27;;;;;;;5.93;3.20;;;;;;;;;;4981753;28;20026;-84
2022/02/06 09:31:53;;;;;;;5.68;3.22;;;;;;;;;;4982087;28;20396;-84
2022/02/06 09:36:47;;;;;;;7.47;3.08;;;;;;;;;;4985392;28;20817;-84
2022/02/06 09:39:15;;;;;;;6.10;2.80;;;;;;;;;;4984369;28;20038;-84
2022/02/06 09:41:45;;;;;;;5.82;2.63;;;;;;;;;;4990368;28;20813;-84
2022/02/06 09:44:15;;;;;;;6.30;2.40;;;;;;;;;;4987375;28;20558;-84
2022/02/06 09:46:44;;;;;;;6.15;2.50;;;;;;;;;;4987636;28;20031;-83
2022/02/06 09:49:10;;;;;;;4.15;2.00;;;;;;;;;;4985953;28;20066;-84
2022/02/06 09:51:36;;;;;;;6.20;2.00;;;;;;;;;;4981471;28;20062;-83
2022/02/06 09:54:03;;;;;;;4.22;1.95;;;;;;;;;;4988307;28;20030;-83
2022/02/06 09:56:33;;;;;;;3.63;2.10;;;;;;;;;;4986454;28;20029;-84
2022/02/06 09:59:06;;;;;;;4.00;1.88;;;;;;;;;;4981645;28;20478;-83
2022/02/06 10:01:34;;;;;;;4.20;1.92;;;;;;;;;;4983648;28;20073;-84
2022/02/06 10:04:08;;;;;;;4.43;1.80;;;;;;;;;;4999764;28;20117;-83
2022/02/06 10:06:59;;;;;;;4.43;1.98;;;;;;;;;;4981499;28;20026;-83
2022/02/06 10:09:34;;;;;;;4.68;2.00;;;;;;;;;;4983750;28;20125;-83
2022/02/06 10:12:01;;;;;;;3.63;1.83;;;;;;;;;;4981406;28;20045;-83
2022/02/06 10:14:29;;;;;;;4.00;1.73;;;;;;;;;;4986316;28;20027;-84
2022/02/06 10:16:54;;;;;;;3.83;1.80;;;;;;;;;;4983824;28;20057;-85
2022/02/06 10:19:20;;;;;;;3.70;1.70;;;;;;;;;;4984803;28;20058;-84
2022/02/06 10:21:47;;;;;;;5.53;1.90;;;;;;;;;;4989588;28;20054;-83
2022/02/06 10:24:29;;;;;;;3.00;1.60;;;;;;;;;;4986453;28;20030;-83
2022/02/06 10:27:39;;;;;;;2.50;1.52;;;;;;;;;;4997292;28;20538;-84
2022/02/06 10:29:56;;;;;;;4.70;1.60;;;;;;;;;;4978627;28;20084;-85
2022/02/06 10:32:22;;;;;;;3.50;1.80;;;;;;;;;;4985732;28;20040;-83
2022/02/06 10:34:47;;;;;;;3.05;1.48;;;;;;;;;;4987805;28;20108;-83
2022/02/06 10:37:14;;;;;;;3.83;1.58;;;;;;;;;;4985424;28;20033;-83
2022/02/06 10:40:02;;;;;;;2.03;1.30;;;;;;;;;;4983275;28;20383;-83
2022/02/06 10:42:55;;;;;;;3.70;1.55;;;;;;;;;;4986532;28;20113;-83
2022/02/06 10:45:29;;;;;;;2.28;1.48;;;;;;;;;;4978162;28;20042;-83
2022/02/06 10:47:57;;;;;;;4.70;1.50;;;;;;;;;;4987591;28;20029;-82
2022/02/06 10:50:28;;;;;;;3.83;1.65;;;;;;;;;;4987343;28;20029;-84
2022/02/06 10:53:13;;;;;;;3.47;1.58;;;;;;;;;;4982927;28;20506;-83
2022/02/06 10:56:04;;;;;;;6.28;1.80;;;;;;;;;;4984580;28;20034;-83
2022/02/06 10:58:32;;;;;;;3.63;1.60;;;;;;;;;;4985438;28;20042;-83
2022/02/06 11:01:04;;;;;;;3.85;1.60;;;;;;;;;;4986042;28;20038;-81
2022/02/06 11:03:36;;;;;;;3.30;1.50;;;;;;;;;;4985091;28;20102;-81
2022/02/06 11:06:12;;;;;;;5.70;1.77;;;;;;;;;;4984268;28;20280;-83
2022/02/06 11:08:39;;;;;;;2.03;1.50;;;;;;;;;;4982318;28;20034;-82
2022/02/06 11:11:11;;;;;;;3.00;1.60;;;;;;;;;;4985269;28;20769;-82
2022/02/06 11:13:37;;;;;;;4.65;1.55;;;;;;;;;;4989437;28;20120;-82
2022/02/06 11:16:14;;;;;;;3.35;1.50;;;;;;;;;;4987136;28;20038;-82
2022/02/06 11:18:57;;;;;;;3.13;1.38;;;;;;;;;;4988700;28;20084;-82
2022/02/06 11:21:24;;;;;;;2.87;1.40;;;;;;;;;;4999604;28;20076;-82
2022/02/06 11:23:51;;;;;;;2.63;1.52;;;;;;;;;;4984640;28;20476;-82
2022/02/06 11:26:23;;;;;;;2.72;1.40;;;;;;;;;;4986288;28;20026;-82
2022/02/06 11:28:50;;;;;;;4.47;1.90;;;;;;;;;;4988613;28;20030;-82
2022/02/06 11:31:16;;;;;;;9.65;3.30;;;;;;;;;;4995515;28;20049;-82
2022/02/06 11:33:42;;;;;;;8.65;3.42;;;;;;;;;;4982914;28;20435;-83
2022/02/06 11:36:18;;;;;;;3.08;1.70;;;;;;;;;;4981810;28;20030;-83
2022/02/06 11:45:19;;;;;;;2.42;1.58;;;;;;;;;;4992442;28;20033;-83
2022/02/06 11:47:52;;;;;;;2.25;0.70;;;;;;;;;;4988163;28;20520;-83
2022/02/06 11:50:18;;;;;;;4.93;0.80;;;;;;;;;;4989129;28;20044;-83
2022/02/06 11:52:48;;;;;;;4.68;0.90;;;;;;;;;;4986507;28;20031;-83
2022/02/06 11:55:38;;;;;;;3.13;0.60;;;;;;;;;;4992554;28;20042;-81
2022/02/06 11:58:31;;;;;;;4.47;0.70;;;;;;;;;;4987696;28;20042;-81
2022/02/06 12:01:06;;;;;;;4.20;1.25;;;;;;;;;;4991597;28;20053;-83
2022/02/06 12:04:23;;;;;;;2.75;0.40;;;;;;;;;;5003174;28;20057;-83
2022/02/06 12:06:55;;;;;;;2.80;0.60;;;;;;;;;;5006840;28;20038;-83
2022/02/06 12:09:29;;;;;;;3.47;0.57;;;;;;;;;;4992338;28;20036;-83
2022/02/06 12:12:10;;;;;;;;;;;;;;;;;;4991435;28;20081;-83
2022/02/06 12:14:51;;;;;;;7.85;0.93;;;;;;;;;;5003899;28;19918;-83
2022/02/06 12:20:10;;;;;;;4.05;0.60;;;;;;;;;;4986475;28;20056;-83
2022/02/06 12:22:40;;;;;;;8.23;0.60;;;;;;;;;;4989552;28;20247;-83
2022/02/06 12:25:21;;;;;;;3.55;0.50;;;;;;;;;;4989006;28;20038;-82
2022/02/06 12:27:48;;;;;;;6.00;0.70;;;;;;;;;;4986839;28;20029;-82
2022/02/06 12:30:28;;;;;;;5.50;0.60;;;;;;;;;;4980103;28;20054;-82
2022/02/06 12:33:24;;;;;;;4.32;0.43;;;;;;;;;;4987453;28;20085;-83
2022/02/06 12:38:33;;;;;;;1.83;0.70;;;;;;;;;;4982921;28;20110;-83
2022/02/06 12:41:16;;;;;;;3.53;0.45;;;;;;;;;;4980858;28;20105;-83
2022/02/06 12:43:50;;;;;;;1.75;0.50;;;;;;;;;;4979959;28;20034;-83
2022/02/06 12:46:16;;;;;;;3.50;0.50;;;;;;;;;;4998617;28;20038;-83
2022/02/06 12:48:41;;;;;;;5.10;0.70;;;;;;;;;;4987002;28;20494;-82
2022/02/06 12:51:07;;;;;;;5.32;0.60;;;;;;;;;;4985462;28;20214;-81
2022/02/06 12:53:32;;;;;;;3.35;0.60;;;;;;;;;;4990390;28;20088;-83
2022/02/06 12:55:58;;;;;;;5.38;0.50;;;;;;;;;;4989392;28;20034;-82
2022/02/06 12:58:30;;;;;;;2.35;0.55;;;;;;;;;;4984647;28;20129;-84
2022/02/06 13:01:00;;;;;;;3.93;0.63;;;;;;;;;;4982670;28;20046;-83
2022/02/06 13:03:30;;;;;;;6.63;0.70;;;;;;;;;;4995030;28;20038;-83
2022/02/06 13:06:18;;;;;;;4.03;0.65;;;;;;;;;;4993355;28;20034;-84
2022/02/06 13:08:47;;;;;;;5.50;0.90;;;;;;;;;;4983428;28;20030;-83
2022/02/06 13:11:29;;;;;;;5.70;0.55;;;;;;;;;;4979208;28;20109;-84
2022/02/06 13:14:12;;;;;;;3.63;0.65;;;;;;;;;;4982568;28;20042;-83
2022/02/06 13:16:52;;;;;;;3.88;0.57;;;;;;;;;;4983156;28;20150;-83
2022/02/06 13:39:51;;;;;;;6.90;1.00;;;;;;;;;;4978372;28;20121;-84
2022/02/06 13:42:31;;;;;;;7.10;0.90;;;;;;;;;;5007882;28;20061;-84
2022/02/06 13:45:14;;;;;;;5.80;0.75;;;;;;;;;;4984172;28;20490;-83
2022/02/06 13:47:47;;;;;;;5.30;0.88;;;;;;;;;;4986904;28;20042;-84
2022/02/06 13:50:27;;;;;;;8.95;1.10;;;;;;;;;;4982383;28;20042;-84
2022/02/06 13:53:33;;;;;;;9.75;1.20;;;;;;;;;;4990174;28;20044;-83
2022/02/06 13:56:17;;;;;;;;;;;;;;;;;;;;;
2022/02/06 13:59:25;;;;;;;5.47;0.82;;;;;;;;;;4982412;28;20041;-84
2022/02/06 14:01:53;;;;;;;6.22;0.80;;;;;;;;;;4988675;28;20054;-84
2022/02/06 14:04:36;;;;;;;6.88;1.20;;;;;;;;;;4980041;28;20030;-84
2022/02/06 14:07:23;;;;;;;9.25;0.82;;;;;;;;;;4980433;28;20475;-84
2022/02/06 14:12:29;;;;;;;7.95;1.10;;;;;;;;;;4987282;28;19913;-84
2022/02/06 14:15:03;;;;;;;7.20;0.95;;;;;;;;;;4984052;28;20041;-84
2022/02/06 14:17:38;;;;;;;4.97;0.93;;;;;;;;;;4980810;28;20399;-84
2022/02/06 14:20:34;;;;;;;4.13;1.02;;;;;;;;;;4979468;28;20057;-84
2022/02/06 14:23:04;;;;;;;12.32;1.25;;;;;;;;;;4989801;28;20052;-84
2022/02/06 14:25:39;;;;;;;6.35;1.00;;;;;;;;;;4983732;28;20029;-85
2022/02/06 14:28:36;;;;;;;7.55;1.00;;;;;;;;;;4990544;28;20044;-84
2022/02/06 14:31:02;;;;;;;6.50;0.98;;;;;;;;;;4979125;28;20036;-84
2022/02/06 14:33:33;;;;;;;4.35;0.70;;;;;;;;;;4996828;28;20116;-84
2022/02/06 14:36:07;;;;;;;8.05;0.95;;;;;;;;;;4997390;28;20129;-85
2022/02/06 14:42:11;;;;;;;5.47;0.88;;;;;;;;;;4981007;28;20041;-84
2022/02/06 14:44:37;;;;;;;4.95;0.75;;;;;;;;;;4958561;28;20049;-86
2022/02/06 14:47:05;;;;;;;5.15;1.10;;;;;;;;;;4990367;28;20015;-85
2022/02/06 14:49:35;;;;;;;3.70;0.85;;;;;;;;;;4983378;28;20109;-85
2022/02/06 14:52:06;;;;;;;5.13;0.90;;;;;;;;;;5003270;28;20019;-84
2022/02/06 14:54:41;;;;;;;4.72;1.00;;;;;;;;;;4987280;28;20077;-85
2022/02/06 14:57:06;;;;;;;5.72;0.85;;;;;;;;;;5002934;28;20026;-84
2022/02/06 14:59:36;;;;;;;5.38;0.90;;;;;;;;;;5001170;28;20033;-85
2022/02/06 15:02:08;;;;;;;5.65;1.02;;;;;;;;;;4991242;28;20026;-84
2022/02/06 15:04:36;;;;;;;5.05;1.20;;;;;;;;;;4985623;28;20039;-85
2022/02/06 15:07:08;;;;;;;6.28;0.98;;;;;;;;;;4989873;28;20026;-84
2022/02/06 15:09:40;;;;;;;7.25;1.75;;;;;;;;;;4979807;28;20027;-86
2022/02/06 15:12:09;;;;;;;3.63;0.80;;;;;;;;;;5000987;28;20042;-84
2022/02/06 15:14:37;;;;;;;6.90;1.08;;;;;;;;;;4979818;28;20047;-85
2022/02/06 15:17:18;;;;;;;3.80;0.90;;;;;;;;;;4984131;28;20264;-85
2022/02/06 15:19:43;;;;;;;5.32;1.02;;;;;;;;;;5007001;28;20034;-86
2022/02/06 15:22:09;;;;;;;3.25;0.80;;;;;;;;;;5008363;28;20034;-85
2022/02/06 15:24:40;;;;;;;3.25;1.10;;;;;;;;;;4995692;28;20045;-85
2022/02/06 15:27:11;;;;;;;3.97;1.08;;;;;;;;;;4996180;28;20067;-84
2022/02/06 15:29:40;;;;;;;4.65;0.95;;;;;;;;;;5009178;28;21546;-86
2022/02/06 15:32:11;;;;;;;5.70;0.98;;;;;;;;;;4992481;28;20023;-85
2022/02/06 15:34:42;;;;;;;6.68;0.95;;;;;;;;;;4992306;28;20026;-83
2022/02/06 15:37:15;;;;;;;3.80;1.20;;;;;;;;;;4989922;28;20046;-85
2022/02/06 15:39:42;;;;;;;8.80;1.70;;;;;;;;;;4989568;28;20057;-85
2022/02/06 15:42:18;;;;;;;9.05;1.60;;;;;;;;;;4991897;28;20045;-85
2022/02/06 15:44:45;;;;;;;4.65;0.98;;;;;;;;;;4994676;28;20039;-86
2022/02/06 15:47:14;;;;;;;7.68;1.52;;;;;;;;;;4990844;28;20018;-84
2022/02/06 15:49:45;;;;;;;8.63;1.92;;;;;;;;;;4987436;28;20034;-85
2022/02/06 15:52:14;;;;;;;8.02;2.00;;;;;;;;;;4991905;28;20029;-86
2022/02/06 15:54:46;;;;;;;5.45;1.40;;;;;;;;;;4990379;28;20057;-85
2022/02/06 15:57:16;;;;;;;8.40;1.30;;;;;;;;;;5001135;28;20474;-86
2022/02/06 15:59:48;;;;;;;7.65;1.15;;;;;;;;;;4984303;28;20462;-85
2022/02/06 16:02:18;;;;;;;6.90;1.40;;;;;;;;;;4989626;28;20030;-86
2022/02/06 16:04:46;;;;;;;8.63;1.33;;;;;;;;;;4989243;28;20036;-85
2022/02/06 16:07:18;;;;;;;5.68;1.40;;;;;;;;;;4989515;28;20086;-86
2022/02/06 16:09:46;;;;;;;8.55;1.00;;;;;;;;;;4983601;28;20105;-85
2022/02/06 16:12:17;;;;;;;7.95;1.58;;;;;;;;;;4982515;28;20027;-84
2022/02/06 16:14:49;;;;;;;7.35;1.58;;;;;;;;;;4991847;28;20323;-84
2022/02/06 16:17:17;;;;;;;9.20;1.40;;;;;;;;;;4993791;28;20038;-85
2022/02/06 16:19:52;;;;;;;8.95;1.30;;;;;;;;;;4986367;28;20068;-85
2022/02/06 16:22:20;;;;;;;4.60;1.10;;;;;;;;;;4987210;28;20707;-85
2022/02/06 16:24:51;;;;;;;4.00;1.00;;;;;;;;;;5000769;28;20030;-85
2022/02/06 16:27:20;;;;;;;5.70;1.15;;;;;;;;;;4990305;28;20029;-84
2022/02/06 16:29:46;;;;;;;2.55;0.65;;;;;;;;;;4982757;28;20532;-84
2022/02/06 16:32:20;;;;;;;4.60;1.08;;;;;;;;;;4985028;28;20033;-85
2022/02/06 16:34:51;;;;;;;2.70;0.98;;;;;;;;;;4982196;28;20034;-84
2022/02/06 16:37:23;;;;;;;2.47;0.70;;;;;;;;;;4999685;28;20034;-84
2022/02/06 16:39:51;;;;;;;2.30;0.80;;;;;;;;;;5002746;28;20057;-84
2022/02/06 16:42:22;;;;;;;2.95;0.70;;;;;;;;;;4986527;28;20025;-83
2022/02/06 16:44:54;;;;;;;3.50;0.70;;;;;;;;;;4984005;28;20041;-84
2022/02/06 16:47:20;;;;;;;3.50;0.60;;;;;;;;;;5004234;28;20027;-84
2022/02/06 16:49:50;;;;;;;3.05;0.70;;;;;;;;;;4985833;28;20279;-84
2022/02/06 16:52:24;;;;;;;3.45;1.13;;;;;;;;;;4986380;28;20050;-85
2022/02/06 16:54:57;;;;;;;2.58;0.80;;;;;;;;;;4983158;28;20030;-83
2022/02/06 16:57:26;;;;;;;1.10;0.50;;;;;;;;;;4984869;28;20053;-85
2022/02/06 16:59:56;;;;;;;3.10;0.70;;;;;;;;;;4980535;28;20073;-84
2022/02/06 17:02:27;;;;;;;2.38;0.85;;;;;;;;;;4981192;28;20030;-84
2022/02/06 17:04:53;;;;;;;3.05;0.70;;;;;;;;;;4979869;28;20026;-82
2022/02/06 17:07:28;;;;;;;2.67;0.60;;;;;;;;;;4982786;28;20033;-84
2022/02/06 17:09:57;;;;;;;1.75;0.50;;;;;;;;;;4985078;28;20434;-84
2022/02/06 17:12:24;;;;;;;4.50;0.60;;;;;;;;;;4982378;28;20086;-84
2022/02/06 17:14:59;;;;;;;3.50;0.73;;;;;;;;;;4989543;28;20530;-83
2022/02/06 17:17:27;;;;;;;3.33;0.77;;;;;;;;;;4997579;28;20098;-85
2022/02/06 17:20:01;;;;;;;2.13;0.63;;;;;;;;;;4983047;28;20069;-84
2022/02/06 17:22:26;;;;;;;1.35;0.70;;;;;;;;;;4986159;28;20038;-84
2022/02/06 17:24:52;;;;;;;1.60;0.60;;;;;;;;;;4990052;28;20030;-85
2022/02/06 17:27:22;;;;;;;2.65;0.60;;;;;;;;;;4991429;28;20088;-83
2022/02/06 17:29:48;;;;;;;1.92;0.50;;;;;;;;;;4980908;28;20427;-84
2022/02/06 17:32:14;;;;;;;3.60;0.82;;;;;;;;;;4989041;28;20046;-84
2022/02/06 17:34:39;;;;;;;1.15;0.47;;;;;;;;;;4984850;28;20727;-83
2022/02/06 17:37:05;;;;;;;6.00;0.60;;;;;;;;;;4987072;28;20026;-84
2022/02/06 17:39:31;;;;;;;3.47;0.60;;;;;;;;;;4987203;28;20056;-84
2022/02/06 17:41:57;;;;;;;3.58;0.65;;;;;;;;;;4984993;28;20250;-83
2022/02/06 17:44:22;;;;;;;1.63;1.33;;;;;;;;;;4972603;28;20049;-84